Time;durP1;ratioP1;P1;durP2;ratioP2;P2;SDS_P1;SDS_P2;PMS_P1;PMS_P2;Temp;Humidity;BMP_temperature;BMP_pressure;BME280_temperature;BME280_humidity;BME280_pressure;Samples;Min_cycle;Max_cycle;Signal;HPM_P1;HPM_P2
2024/01/26 00:01:50;;;;;;;57.13;35.13;;;;;;;;;;4859456;29;20675;-71
2024/01/26 00:04:18;;;;;;;63.00;35.45;;;;;;;;;;4859712;29;20979;-71
2024/01/26 00:06:46;;;;;;;52.35;33.42;;;;;;;;;;4841078;29;20698;-71
2024/01/26 00:09:15;;;;;;;59.05;33.80;;;;;;;;;;4845079;29;20225;-71
2024/01/26 00:11:44;;;;;;;48.25;33.20;;;;;;;;;;4859876;29;20215;-71
2024/01/26 00:14:13;;;;;;;59.22;34.15;;;;;;;;;;4859263;29;20221;-71
2024/01/26 00:16:42;;;;;;;51.17;32.85;;;;;;;;;;4858878;29;20208;-71
2024/01/26 00:19:10;;;;;;;50.83;31.42;;;;;;;;;;4850878;29;20211;-71
2024/01/26 00:21:38;;;;;;;42.78;29.50;;;;;;;;;;4823528;29;20216;-71
2024/01/26 00:24:07;;;;;;;45.65;30.13;;;;;;;;;;4842015;29;20212;-71
2024/01/26 00:26:35;;;;;;;44.67;29.40;;;;;;;;;;4856423;29;20231;-71
2024/01/26 00:29:03;;;;;;;42.08;27.35;;;;;;;;;;4851384;29;20212;-71
2024/01/26 00:31:33;;;;;;;38.70;26.90;;;;;;;;;;4859546;29;20216;-71
2024/01/26 00:34:01;;;;;;;40.38;27.33;;;;;;;;;;4859581;29;20348;-72
2024/01/26 00:36:29;;;;;;;38.13;25.73;;;;;;;;;;4859937;29;20246;-72
2024/01/26 00:38:57;;;;;;;36.17;24.42;;;;;;;;;;4853006;29;20205;-71
2024/01/26 00:41:26;;;;;;;29.85;22.65;;;;;;;;;;4850113;29;20668;-71
2024/01/26 00:43:54;;;;;;;27.45;20.55;;;;;;;;;;4842616;29;20560;-71
2024/01/26 00:46:22;;;;;;;34.28;19.38;;;;;;;;;;4849556;29;20683;-71
2024/01/26 00:48:52;;;;;;;27.23;19.48;;;;;;;;;;4849000;29;20667;-71
2024/01/26 00:51:20;;;;;;;25.60;18.25;;;;;;;;;;4850480;29;20216;-71
2024/01/26 00:53:49;;;;;;;21.50;17.50;;;;;;;;;;4852646;29;20642;-71
2024/01/26 00:56:17;;;;;;;23.83;17.75;;;;;;;;;;4847534;29;20204;-71
2024/01/26 00:58:45;;;;;;;18.60;15.90;;;;;;;;;;4843345;29;20617;-71
2024/01/26 01:01:13;;;;;;;17.55;13.50;;;;;;;;;;4852397;29;20211;-71
2024/01/26 01:03:41;;;;;;;15.40;12.85;;;;;;;;;;4845844;29;20215;-71
2024/01/26 01:06:11;;;;;;;16.92;13.85;;;;;;;;;;4843191;29;20280;-71
2024/01/26 01:08:39;;;;;;;17.70;12.20;;;;;;;;;;4840966;29;20279;-71
2024/01/26 01:11:08;;;;;;;17.33;12.65;;;;;;;;;;4857458;29;20234;-72
2024/01/26 01:13:36;;;;;;;16.83;11.93;;;;;;;;;;4858828;29;20221;-71
2024/01/26 01:16:05;;;;;;;14.77;11.30;;;;;;;;;;4844366;29;20200;-72
2024/01/26 01:18:33;;;;;;;11.65;10.27;;;;;;;;;;4840959;29;20630;-71
2024/01/26 01:21:01;;;;;;;13.25;10.95;;;;;;;;;;4842578;29;20196;-71
2024/01/26 01:23:31;;;;;;;13.20;10.63;;;;;;;;;;4840319;29;20212;-71
2024/01/26 01:25:59;;;;;;;14.65;10.48;;;;;;;;;;4838697;29;20224;-71
2024/01/26 01:28:27;;;;;;;14.07;11.13;;;;;;;;;;4838722;29;20204;-70
2024/01/26 01:30:55;;;;;;;11.55;10.10;;;;;;;;;;4839071;29;20580;-71
2024/01/26 01:33:24;;;;;;;11.70;10.00;;;;;;;;;;4839913;29;20610;-72
2024/01/26 01:35:52;;;;;;;11.05;9.80;;;;;;;;;;4839988;29;20208;-71
2024/01/26 01:38:21;;;;;;;14.77;11.43;;;;;;;;;;4840134;29;20210;-71
2024/01/26 01:40:50;;;;;;;12.00;10.70;;;;;;;;;;4841763;29;20282;-71
2024/01/26 01:43:19;;;;;;;14.23;11.68;;;;;;;;;;4840248;29;20224;-71
2024/01/26 01:45:47;;;;;;;13.48;12.02;;;;;;;;;;4840646;29;20231;-71
2024/01/26 01:48:16;;;;;;;17.05;11.60;;;;;;;;;;4840551;29;20212;-71
2024/01/26 01:50:44;;;;;;;13.73;12.07;;;;;;;;;;4853362;29;20211;-71
2024/01/26 01:53:13;;;;;;;19.15;15.38;;;;;;;;;;4850614;29;20208;-71
2024/01/26 01:55:42;;;;;;;15.25;13.68;;;;;;;;;;4838370;29;20220;-71
2024/01/26 01:58:13;;;;;;;17.40;14.38;;;;;;;;;;4838009;29;20214;-71
2024/01/26 02:00:42;;;;;;;20.55;16.42;;;;;;;;;;4839854;29;20208;-71
2024/01/26 02:03:10;;;;;;;17.90;15.43;;;;;;;;;;4837359;29;20215;-71
2024/01/26 02:05:38;;;;;;;17.85;14.43;;;;;;;;;;4842585;29;20726;-70
2024/01/26 02:08:07;;;;;;;15.65;14.05;;;;;;;;;;4841228;29;20698;-70
2024/01/26 02:10:35;;;;;;;15.82;13.80;;;;;;;;;;4852449;29;20211;-69
2024/01/26 02:13:03;;;;;;;14.15;12.65;;;;;;;;;;4840866;29;20697;-69
2024/01/26 02:15:33;;;;;;;18.05;13.55;;;;;;;;;;4838816;29;20279;-69
2024/01/26 02:18:10;;;;;;;20.48;14.77;;;;;;;;;;4842052;29;20239;-69
2024/01/26 02:20:38;;;;;;;14.32;12.32;;;;;;;;;;4851192;29;20208;-70
2024/01/26 02:23:06;;;;;;;23.15;13.63;;;;;;;;;;4840312;29;20663;-69
2024/01/26 02:25:36;;;;;;;14.68;12.23;;;;;;;;;;4844089;29;20234;-69
2024/01/26 02:28:04;;;;;;;15.15;12.93;;;;;;;;;;4843720;29;20570;-69
2024/01/26 02:30:35;;;;;;;14.07;12.57;;;;;;;;;;4847705;29;20196;-70
2024/01/26 02:33:03;;;;;;;14.57;12.00;;;;;;;;;;4838188;29;20249;-70
2024/01/26 02:35:32;;;;;;;22.55;13.30;;;;;;;;;;4837822;29;20218;-69
2024/01/26 02:38:00;;;;;;;15.13;12.73;;;;;;;;;;4852505;29;20213;-69
2024/01/26 02:40:29;;;;;;;14.75;11.93;;;;;;;;;;4851241;29;20208;-70
2024/01/26 02:42:58;;;;;;;12.90;11.60;;;;;;;;;;4847417;29;20567;-70
2024/01/26 02:45:27;;;;;;;15.95;11.15;;;;;;;;;;4842068;29;20590;-71
2024/01/26 02:47:56;;;;;;;12.82;11.50;;;;;;;;;;4858913;29;20211;-70
2024/01/26 02:50:24;;;;;;;12.75;10.90;;;;;;;;;;4860456;29;20689;-70
2024/01/26 02:52:52;;;;;;;14.10;11.40;;;;;;;;;;4848494;29;20216;-70
2024/01/26 02:55:21;;;;;;;13.70;12.27;;;;;;;;;;4828165;29;20734;-69
2024/01/26 02:57:49;;;;;;;13.75;11.45;;;;;;;;;;4856610;29;20212;-70
2024/01/26 03:00:19;;;;;;;13.80;12.10;;;;;;;;;;4827164;29;20226;-69
2024/01/26 03:02:47;;;;;;;18.40;14.32;;;;;;;;;;4847928;29;20208;-70
2024/01/26 03:05:15;;;;;;;13.10;11.52;;;;;;;;;;4846157;29;20658;-69
2024/01/26 03:07:42;;;;;;;17.42;13.60;;;;;;;;;;4848575;29;20238;-69
2024/01/26 03:10:11;;;;;;;16.73;13.05;;;;;;;;;;4860722;29;20666;-70
2024/01/26 03:12:39;;;;;;;15.00;11.85;;;;;;;;;;4861403;29;20207;-70
2024/01/26 03:15:08;;;;;;;16.75;12.55;;;;;;;;;;4860892;29;20223;-70
2024/01/26 03:17:37;;;;;;;15.25;11.90;;;;;;;;;;4854418;29;20211;-70
2024/01/26 03:20:07;;;;;;;12.50;11.23;;;;;;;;;;4849974;29;20222;-70
2024/01/26 03:22:36;;;;;;;14.93;12.82;;;;;;;;;;4834543;29;20204;-70
2024/01/26 03:25:04;;;;;;;14.43;12.15;;;;;;;;;;4841480;29;20216;-70
2024/01/26 03:27:32;;;;;;;13.73;11.45;;;;;;;;;;4843638;29;20575;-70
2024/01/26 03:30:00;;;;;;;16.10;11.60;;;;;;;;;;4851621;29;20208;-69
2024/01/26 03:32:29;;;;;;;14.48;11.77;;;;;;;;;;4860194;29;20211;-69
2024/01/26 03:34:58;;;;;;;18.02;12.25;;;;;;;;;;4850169;29;20243;-70
2024/01/26 03:37:27;;;;;;;15.82;13.30;;;;;;;;;;4854688;29;20203;-71
2024/01/26 03:39:55;;;;;;;14.80;11.27;;;;;;;;;;4857789;29;20218;-70
2024/01/26 03:42:23;;;;;;;13.13;11.80;;;;;;;;;;4841123;29;20217;-70
2024/01/26 03:44:51;;;;;;;13.70;12.00;;;;;;;;;;4854611;29;20211;-70
2024/01/26 03:47:20;;;;;;;16.38;12.30;;;;;;;;;;4853337;29;20222;-70
2024/01/26 03:49:48;;;;;;;14.55;13.00;;;;;;;;;;4846897;29;20320;-70
2024/01/26 03:52:18;;;;;;;17.60;14.18;;;;;;;;;;4851949;29;20204;-70
2024/01/26 03:54:46;;;;;;;16.75;13.55;;;;;;;;;;4857703;29;20218;-71
2024/01/26 03:57:14;;;;;;;19.85;14.45;;;;;;;;;;4860064;29;20435;-70
2024/01/26 03:59:43;;;;;;;18.98;12.40;;;;;;;;;;4861103;29;20222;-70
2024/01/26 04:02:11;;;;;;;15.00;13.10;;;;;;;;;;4859447;29;20722;-70
2024/01/26 04:04:39;;;;;;;17.23;14.05;;;;;;;;;;4859458;29;20215;-70
2024/01/26 04:07:08;;;;;;;19.65;14.85;;;;;;;;;;4859347;29;20251;-70
2024/01/26 04:09:37;;;;;;;17.92;14.57;;;;;;;;;;4860918;29;20212;-70
2024/01/26 04:12:06;;;;;;;18.67;14.45;;;;;;;;;;4860234;29;20211;-70
2024/01/26 04:14:35;;;;;;;18.20;14.65;;;;;;;;;;4859521;29;20215;-69
2024/01/26 04:17:03;;;;;;;18.98;14.80;;;;;;;;;;4860036;29;20215;-70
2024/01/26 04:19:31;;;;;;;22.80;15.60;;;;;;;;;;4842537;29;20201;-70
2024/01/26 04:22:00;;;;;;;16.40;13.30;;;;;;;;;;4860289;29;20207;-70
2024/01/26 04:24:28;;;;;;;18.70;13.30;;;;;;;;;;4860344;29;20203;-70
2024/01/26 04:26:57;;;;;;;18.40;13.05;;;;;;;;;;4852772;29;20232;-70
2024/01/26 04:29:26;;;;;;;20.17;14.30;;;;;;;;;;4850447;29;20211;-70
2024/01/26 04:31:54;;;;;;;14.25;11.82;;;;;;;;;;4859344;29;20214;-70
2024/01/26 04:34:22;;;;;;;15.75;11.98;;;;;;;;;;4830971;29;20248;-70
2024/01/26 04:36:51;;;;;;;16.05;12.10;;;;;;;;;;4837958;29;20202;-70
2024/01/26 04:39:19;;;;;;;21.13;13.70;;;;;;;;;;4840535;29;20218;-70
2024/01/26 04:41:47;;;;;;;13.30;11.13;;;;;;;;;;4859027;29;20625;-70
2024/01/26 04:44:17;;;;;;;15.10;10.85;;;;;;;;;;4854399;29;20214;-70
2024/01/26 04:46:45;;;;;;;11.85;10.15;;;;;;;;;;4841404;29;20738;-70
2024/01/26 04:49:13;;;;;;;11.82;9.65;;;;;;;;;;4843985;29;20625;-70
2024/01/26 04:51:42;;;;;;;11.45;10.25;;;;;;;;;;4859028;29;20207;-70
2024/01/26 04:54:10;;;;;;;12.00;9.30;;;;;;;;;;4857838;29;20214;-70
2024/01/26 04:56:38;;;;;;;13.05;9.40;;;;;;;;;;4858082;29;20208;-70
2024/01/26 04:59:06;;;;;;;10.25;9.20;;;;;;;;;;4859057;29;20223;-70
2024/01/26 05:01:36;;;;;;;12.88;10.10;;;;;;;;;;4854718;29;20207;-70
2024/01/26 05:04:04;;;;;;;9.85;8.85;;;;;;;;;;4849333;29;20222;-70
2024/01/26 05:06:32;;;;;;;10.35;8.20;;;;;;;;;;4849692;29;20215;-69
2024/01/26 05:09:01;;;;;;;8.45;7.65;;;;;;;;;;4858789;29;20215;-70
2024/01/26 05:11:29;;;;;;;9.55;8.52;;;;;;;;;;4859370;29;20211;-70
2024/01/26 05:13:57;;;;;;;12.38;9.27;;;;;;;;;;4859613;29;20217;-70
2024/01/26 05:16:26;;;;;;;9.35;8.55;;;;;;;;;;4858611;29;20211;-70
2024/01/26 05:18:55;;;;;;;11.32;8.25;;;;;;;;;;4852200;29;20208;-70
2024/01/26 05:21:23;;;;;;;8.82;7.45;;;;;;;;;;4854183;29;20218;-70
2024/01/26 05:23:51;;;;;;;8.93;8.02;;;;;;;;;;4840800;29;20216;-70
2024/01/26 05:26:20;;;;;;;9.00;8.20;;;;;;;;;;4851331;29;20218;-70
2024/01/26 05:28:48;;;;;;;9.82;7.78;;;;;;;;;;4847501;29;20245;-70
2024/01/26 05:31:16;;;;;;;10.10;8.27;;;;;;;;;;4852757;29;20211;-70
2024/01/26 05:33:44;;;;;;;9.48;8.45;;;;;;;;;;4850665;29;20254;-70
2024/01/26 05:36:14;;;;;;;10.80;7.75;;;;;;;;;;4844438;29;20265;-70
2024/01/26 05:38:42;;;;;;;11.55;8.73;;;;;;;;;;4859270;29;20246;-72
2024/01/26 05:41:11;;;;;;;10.10;9.05;;;;;;;;;;4855339;29;20211;-70
2024/01/26 05:43:40;;;;;;;10.48;9.38;;;;;;;;;;4859251;29;20247;-70
2024/01/26 05:46:08;;;;;;;11.38;8.20;;;;;;;;;;4859089;29;20215;-69
2024/01/26 05:48:37;;;;;;;9.43;8.40;;;;;;;;;;4858973;29;20263;-70
2024/01/26 05:51:05;;;;;;;9.55;8.55;;;;;;;;;;4841648;29;20260;-70
2024/01/26 05:53:35;;;;;;;8.65;7.85;;;;;;;;;;4858742;29;20321;-70
2024/01/26 05:56:03;;;;;;;12.70;8.57;;;;;;;;;;4858535;29;20211;-70
2024/01/26 05:58:32;;;;;;;11.85;10.63;;;;;;;;;;4858806;29;20218;-69
2024/01/26 06:01:01;;;;;;;12.40;8.25;;;;;;;;;;4847199;29;20295;-70
2024/01/26 06:03:29;;;;;;;9.57;8.13;;;;;;;;;;4840215;29;20215;-69
2024/01/26 06:05:57;;;;;;;9.48;8.38;;;;;;;;;;4840996;29;20212;-69
2024/01/26 06:08:25;;;;;;;11.23;8.88;;;;;;;;;;4833117;29;20223;-69
2024/01/26 06:10:56;;;;;;;11.40;8.32;;;;;;;;;;4851665;29;20211;-70
2024/01/26 06:13:25;;;;;;;10.50;9.25;;;;;;;;;;4850072;29;20275;-69
2024/01/26 06:15:54;;;;;;;9.38;8.38;;;;;;;;;;4825277;29;20216;-69
2024/01/26 06:18:22;;;;;;;11.20;8.20;;;;;;;;;;4844565;29;20206;-69
2024/01/26 06:20:50;;;;;;;9.73;8.20;;;;;;;;;;4839401;29;20222;-70
2024/01/26 06:23:18;;;;;;;9.27;7.75;;;;;;;;;;4858996;29;20200;-69
2024/01/26 06:25:46;;;;;;;9.38;8.35;;;;;;;;;;4842747;29;20212;-69
2024/01/26 06:28:16;;;;;;;9.23;8.25;;;;;;;;;;4845733;29;20233;-69
2024/01/26 06:30:44;;;;;;;10.68;7.43;;;;;;;;;;4858452;29;20207;-70
2024/01/26 06:33:12;;;;;;;9.57;8.68;;;;;;;;;;4844797;29;20245;-69
2024/01/26 06:35:40;;;;;;;10.88;7.90;;;;;;;;;;4837224;29;20217;-69
2024/01/26 06:38:09;;;;;;;7.50;6.70;;;;;;;;;;4833282;29;20268;-70
2024/01/26 06:40:37;;;;;;;8.90;7.97;;;;;;;;;;4850260;29;20203;-71
2024/01/26 06:43:07;;;;;;;8.27;7.47;;;;;;;;;;4860710;29;20216;-69
2024/01/26 06:45:37;;;;;;;9.57;6.78;;;;;;;;;;4843733;29;20546;-69
2024/01/26 06:48:06;;;;;;;10.98;7.70;;;;;;;;;;4839928;29;20220;-70
2024/01/26 06:50:34;;;;;;;7.93;7.22;;;;;;;;;;4843088;29;20204;-69
2024/01/26 06:53:02;;;;;;;9.05;7.50;;;;;;;;;;4851465;29;20577;-69
2024/01/26 06:55:31;;;;;;;8.13;6.45;;;;;;;;;;4843209;29;20649;-69
2024/01/26 06:57:59;;;;;;;6.25;5.25;;;;;;;;;;4851286;29;20290;-68
2024/01/26 07:00:29;;;;;;;7.60;6.63;;;;;;;;;;4849417;29;20211;-70
2024/01/26 07:02:59;;;;;;;7.32;6.63;;;;;;;;;;4854855;29;20200;-69
2024/01/26 07:05:27;;;;;;;9.38;5.65;;;;;;;;;;4849688;29;20207;-69
2024/01/26 07:07:56;;;;;;;7.18;6.45;;;;;;;;;;4857681;29;20238;-69
2024/01/26 07:10:24;;;;;;;6.93;6.20;;;;;;;;;;4843320;29;20582;-70
2024/01/26 07:12:53;;;;;;;8.10;5.72;;;;;;;;;;4857631;29;20211;-69
2024/01/26 07:15:21;;;;;;;5.00;4.60;;;;;;;;;;4841781;29;20204;-69
2024/01/26 07:17:49;;;;;;;5.40;4.90;;;;;;;;;;4841473;29;20204;-69
2024/01/26 07:20:20;;;;;;;6.63;5.32;;;;;;;;;;4842285;29;20206;-70
2024/01/26 07:22:49;;;;;;;6.05;5.40;;;;;;;;;;4842279;29;20212;-72
2024/01/26 07:25:18;;;;;;;7.75;5.53;;;;;;;;;;4845334;29;20203;-70
2024/01/26 07:27:47;;;;;;;7.53;5.80;;;;;;;;;;4850654;29;20208;-70
2024/01/26 07:30:17;;;;;;;5.63;5.13;;;;;;;;;;4845034;29;20199;-70
2024/01/26 07:32:45;;;;;;;7.18;5.30;;;;;;;;;;4844190;29;20208;-70
2024/01/26 07:35:13;;;;;;;8.88;4.88;;;;;;;;;;4836849;29;20589;-70
2024/01/26 07:37:43;;;;;;;5.72;5.13;;;;;;;;;;4849578;29;20217;-70
2024/01/26 07:40:11;;;;;;;4.70;4.20;;;;;;;;;;4846855;29;20208;-70
2024/01/26 07:42:40;;;;;;;6.03;4.53;;;;;;;;;;4849807;29;20668;-71
2024/01/26 07:45:08;;;;;;;4.53;4.05;;;;;;;;;;4845499;29;20209;-70
2024/01/26 07:47:36;;;;;;;6.15;4.75;;;;;;;;;;4842840;29;20761;-70
2024/01/26 07:50:05;;;;;;;5.20;4.70;;;;;;;;;;4844792;29;20219;-70
2024/01/26 07:52:34;;;;;;;4.10;3.70;;;;;;;;;;4843207;29;20728;-70
2024/01/26 07:55:03;;;;;;;3.97;3.67;;;;;;;;;;4842931;29;20196;-70
2024/01/26 07:57:31;;;;;;;4.68;4.28;;;;;;;;;;4841763;29;20200;-70
2024/01/26 08:00:00;;;;;;;4.30;3.90;;;;;;;;;;4847483;29;20568;-69
2024/01/26 08:02:28;;;;;;;4.10;3.80;;;;;;;;;;4844151;29;20208;-70
2024/01/26 08:04:56;;;;;;;3.63;3.25;;;;;;;;;;4841933;29;20267;-70
2024/01/26 08:07:24;;;;;;;5.63;3.30;;;;;;;;;;4843330;29;20200;-70
2024/01/26 08:09:53;;;;;;;3.67;3.38;;;;;;;;;;4849766;29;20601;-70
2024/01/26 08:12:22;;;;;;;3.63;3.05;;;;;;;;;;4845044;29;20222;-70
2024/01/26 08:14:50;;;;;;;3.55;3.25;;;;;;;;;;4842087;29;20218;-70
2024/01/26 08:17:19;;;;;;;4.18;3.83;;;;;;;;;;4847565;29;20310;-70
2024/01/26 08:19:47;;;;;;;3.00;2.80;;;;;;;;;;4841677;29;20207;-70
2024/01/26 08:22:15;;;;;;;4.20;3.80;;;;;;;;;;4855595;29;20207;-70
2024/01/26 08:24:43;;;;;;;3.90;3.58;;;;;;;;;;4859069;29;20272;-70
2024/01/26 08:27:12;;;;;;;2.97;2.78;;;;;;;;;;4850322;29;20208;-70
2024/01/26 08:29:41;;;;;;;3.33;3.00;;;;;;;;;;4846724;29;20341;-70
2024/01/26 08:32:10;;;;;;;3.10;2.65;;;;;;;;;;4854737;29;20222;-72
2024/01/26 08:34:38;;;;;;;3.25;2.95;;;;;;;;;;4844535;29;20260;-70
2024/01/26 08:37:06;;;;;;;2.90;2.70;;;;;;;;;;4843596;29;20280;-70
2024/01/26 08:39:35;;;;;;;2.85;2.55;;;;;;;;;;4837105;29;20551;-71
2024/01/26 08:42:04;;;;;;;7.03;2.75;;;;;;;;;;4846035;29;20273;-70
2024/01/26 08:44:32;;;;;;;10.25;2.92;;;;;;;;;;4842315;29;20865;-71
2024/01/26 08:47:02;;;;;;;5.85;2.85;;;;;;;;;;4846566;29;20667;-70
2024/01/26 08:49:32;;;;;;;2.50;2.40;;;;;;;;;;4840657;29;20236;-71
2024/01/26 08:52:01;;;;;;;3.25;2.45;;;;;;;;;;4840699;29;20718;-70
2024/01/26 08:54:29;;;;;;;2.85;2.65;;;;;;;;;;4840654;29;20283;-69
2024/01/26 08:56:57;;;;;;;2.85;2.65;;;;;;;;;;4848762;29;20203;-70
2024/01/26 08:59:25;;;;;;;2.63;2.42;;;;;;;;;;4830894;29;20600;-70
2024/01/26 09:01:54;;;;;;;5.10;2.50;;;;;;;;;;4836879;29;20219;-69
2024/01/26 09:04:23;;;;;;;2.40;2.20;;;;;;;;;;4843443;29;20206;-71
2024/01/26 09:06:51;;;;;;;3.20;2.88;;;;;;;;;;4830108;29;20218;-71
2024/01/26 09:09:19;;;;;;;5.22;2.80;;;;;;;;;;4847513;29;20223;-71
2024/01/26 09:11:48;;;;;;;2.80;2.60;;;;;;;;;;4843771;29;20689;-71
2024/01/26 09:14:16;;;;;;;2.78;2.60;;;;;;;;;;4843681;29;20218;-70
2024/01/26 09:16:45;;;;;;;3.40;3.10;;;;;;;;;;4841176;29;20214;-70
2024/01/26 09:19:13;;;;;;;3.33;2.80;;;;;;;;;;4844228;29;20208;-70
2024/01/26 09:21:43;;;;;;;2.80;2.60;;;;;;;;;;4853848;29;20207;-70
2024/01/26 09:24:11;;;;;;;2.10;2.00;;;;;;;;;;4840822;29;20208;-70
2024/01/26 09:26:41;;;;;;;5.20;2.63;;;;;;;;;;4843789;29;20235;-69
2024/01/26 09:29:09;;;;;;;3.17;2.45;;;;;;;;;;4845916;29;20224;-69
2024/01/26 09:31:37;;;;;;;2.50;2.33;;;;;;;;;;4847989;29;20203;-70
2024/01/26 09:34:06;;;;;;;2.70;2.50;;;;;;;;;;4849395;29;20699;-70
2024/01/26 09:36:34;;;;;;;2.65;2.45;;;;;;;;;;4835447;29;20636;-70
2024/01/26 09:39:04;;;;;;;3.00;2.80;;;;;;;;;;4844597;29;20198;-71
2024/01/26 09:41:33;;;;;;;5.82;3.08;;;;;;;;;;4838731;29;20218;-70
2024/01/26 09:44:01;;;;;;;4.53;2.90;;;;;;;;;;4840165;29;20575;-70
2024/01/26 09:46:29;;;;;;;2.80;2.55;;;;;;;;;;4839352;29;20444;-70
2024/01/26 09:48:59;;;;;;;6.38;3.35;;;;;;;;;;4841359;29;20238;-70
2024/01/26 09:51:28;;;;;;;2.88;2.65;;;;;;;;;;4850316;29;20254;-70
2024/01/26 09:53:59;;;;;;;3.10;2.53;;;;;;;;;;4840639;29;20204;-70
2024/01/26 09:56:28;;;;;;;7.57;3.03;;;;;;;;;;4837420;29;20272;-71
2024/01/26 09:58:56;;;;;;;3.28;3.03;;;;;;;;;;4835226;29;20220;-70
2024/01/26 10:01:25;;;;;;;4.15;2.78;;;;;;;;;;4833013;29;20204;-70
2024/01/26 10:03:55;;;;;;;2.63;2.15;;;;;;;;;;4839274;29;20207;-70
2024/01/26 10:06:24;;;;;;;3.13;2.53;;;;;;;;;;4838905;29;20510;-69
2024/01/26 10:08:53;;;;;;;3.13;2.50;;;;;;;;;;4842497;29;20343;-71
2024/01/26 10:11:21;;;;;;;2.80;2.60;;;;;;;;;;4849949;29;20586;-70
2024/01/26 10:13:50;;;;;;;2.60;2.30;;;;;;;;;;4843755;29;20215;-71
2024/01/26 10:16:19;;;;;;;3.40;2.30;;;;;;;;;;4848478;29;20210;-70
2024/01/26 10:18:48;;;;;;;3.05;2.72;;;;;;;;;;4840202;29;20635;-72
2024/01/26 10:21:18;;;;;;;2.17;2.07;;;;;;;;;;4842840;29;20260;-70
2024/01/26 10:23:46;;;;;;;3.28;2.50;;;;;;;;;;4840080;29;20635;-71
2024/01/26 10:26:15;;;;;;;4.28;3.35;;;;;;;;;;4842159;29;20542;-71
2024/01/26 10:28:44;;;;;;;2.50;2.37;;;;;;;;;;4851839;29;20212;-72
2024/01/26 10:31:13;;;;;;;3.70;2.50;;;;;;;;;;4848172;29;20685;-71
2024/01/26 10:33:46;;;;;;;2.72;2.47;;;;;;;;;;4843217;29;20574;-71
2024/01/26 10:36:15;;;;;;;2.80;2.60;;;;;;;;;;4852846;29;20672;-71
2024/01/26 10:38:43;;;;;;;4.50;2.10;;;;;;;;;;4841097;29;20651;-70
2024/01/26 10:41:18;;;;;;;3.00;1.87;;;;;;;;;;4848333;29;20624;-71
2024/01/26 10:43:51;;;;;;;3.00;2.80;;;;;;;;;;4858494;29;21156;-72
2024/01/26 10:46:21;;;;;;;8.63;2.50;;;;;;;;;;4852213;29;20611;-72
2024/01/26 10:48:49;;;;;;;2.40;2.20;;;;;;;;;;4849668;29;20694;-71
2024/01/26 10:51:18;;;;;;;5.13;2.30;;;;;;;;;;4849025;29;20667;-71
2024/01/26 10:53:47;;;;;;;4.90;3.13;;;;;;;;;;4858422;29;20231;-71
2024/01/26 10:56:15;;;;;;;3.17;2.88;;;;;;;;;;4851521;29;20239;-71
2024/01/26 10:58:43;;;;;;;2.97;2.72;;;;;;;;;;4823531;29;20590;-72
2024/01/26 11:01:13;;;;;;;3.42;3.13;;;;;;;;;;4857588;29;20706;-71
2024/01/26 11:03:42;;;;;;;3.20;3.00;;;;;;;;;;4856902;29;20222;-71
2024/01/26 11:06:13;;;;;;;3.83;3.58;;;;;;;;;;4860432;29;20247;-72
2024/01/26 11:08:41;;;;;;;6.53;3.05;;;;;;;;;;4861140;29;20203;-71
2024/01/26 11:11:09;;;;;;;4.10;2.97;;;;;;;;;;4853662;29;20223;-71
2024/01/26 11:13:38;;;;;;;3.40;3.10;;;;;;;;;;4842355;29;20254;-71
2024/01/26 11:16:07;;;;;;;3.72;3.47;;;;;;;;;;4843095;29;20208;-71
2024/01/26 11:18:37;;;;;;;3.58;3.28;;;;;;;;;;4842621;29;20212;-71
2024/01/26 11:21:07;;;;;;;3.30;3.10;;;;;;;;;;4850247;29;20256;-71
2024/01/26 11:23:41;;;;;;;4.43;3.20;;;;;;;;;;4853541;29;20204;-71
2024/01/26 11:26:14;;;;;;;5.43;3.08;;;;;;;;;;4843036;29;20200;-71
2024/01/26 11:28:44;;;;;;;3.40;3.05;;;;;;;;;;4846142;29;20651;-72
2024/01/26 11:31:12;;;;;;;3.78;3.47;;;;;;;;;;4861216;29;20227;-71
2024/01/26 11:33:41;;;;;;;4.40;3.35;;;;;;;;;;4845135;29;20247;-71
2024/01/26 11:36:11;;;;;;;4.28;3.47;;;;;;;;;;4836503;29;20212;-72
2024/01/26 11:38:40;;;;;;;4.30;3.90;;;;;;;;;;4834090;29;20215;-71
2024/01/26 11:41:09;;;;;;;5.82;3.45;;;;;;;;;;4861224;29;20262;-71
2024/01/26 11:43:44;;;;;;;4.18;3.75;;;;;;;;;;4843373;29;20214;-71
2024/01/26 11:46:13;;;;;;;4.55;3.63;;;;;;;;;;4842646;29;20215;-71
2024/01/26 11:48:41;;;;;;;4.20;3.80;;;;;;;;;;4841394;29;20210;-71
2024/01/26 11:51:11;;;;;;;3.75;3.42;;;;;;;;;;4845517;29;20292;-72
2024/01/26 11:53:39;;;;;;;4.05;3.53;;;;;;;;;;4852869;29;20223;-71
2024/01/26 11:56:07;;;;;;;4.90;3.53;;;;;;;;;;4843358;29;20216;-71
2024/01/26 11:58:38;;;;;;;4.13;3.83;;;;;;;;;;4848731;29;20211;-71
2024/01/26 12:01:06;;;;;;;3.85;3.50;;;;;;;;;;4841829;29;20200;-72
2024/01/26 12:03:35;;;;;;;3.78;3.38;;;;;;;;;;4836150;29;20204;-70
2024/01/26 12:06:03;;;;;;;3.92;3.65;;;;;;;;;;4854179;29;20214;-71
2024/01/26 12:08:33;;;;;;;3.90;3.60;;;;;;;;;;4847391;29;20200;-71
2024/01/26 12:11:01;;;;;;;4.20;3.90;;;;;;;;;;4844111;29;20227;-71
2024/01/26 12:13:30;;;;;;;4.60;4.13;;;;;;;;;;4842645;29;20699;-70
2024/01/26 12:15:58;;;;;;;4.78;4.47;;;;;;;;;;4842776;29;20524;-70
2024/01/26 12:18:26;;;;;;;6.35;4.45;;;;;;;;;;4843087;29;20843;-71
2024/01/26 12:20:55;;;;;;;5.10;4.57;;;;;;;;;;4819769;29;20200;-72
2024/01/26 12:23:23;;;;;;;5.50;5.00;;;;;;;;;;4840042;29;20212;-72
2024/01/26 12:25:53;;;;;;;4.88;4.47;;;;;;;;;;4839604;29;20210;-73
2024/01/26 12:28:22;;;;;;;5.07;4.68;;;;;;;;;;4840326;29;20256;-72
2024/01/26 12:30:50;;;;;;;4.47;4.18;;;;;;;;;;4842868;29;20235;-72
2024/01/26 12:33:18;;;;;;;4.20;3.90;;;;;;;;;;4838466;29;20254;-70
2024/01/26 12:35:51;;;;;;;6.47;4.00;;;;;;;;;;4836909;29;20212;-70
2024/01/26 12:38:19;;;;;;;5.28;4.60;;;;;;;;;;4841036;29;20216;-69
2024/01/26 12:40:47;;;;;;;5.85;5.35;;;;;;;;;;4840635;29;20276;-70
2024/01/26 12:43:17;;;;;;;3.50;3.20;;;;;;;;;;4836965;29;20212;-72
2024/01/26 12:45:45;;;;;;;5.32;4.70;;;;;;;;;;4840163;29;20671;-71
2024/01/26 12:48:14;;;;;;;4.05;3.75;;;;;;;;;;4839526;29;20209;-73
2024/01/26 12:50:42;;;;;;;4.22;3.92;;;;;;;;;;4839225;29;20231;-71
2024/01/26 12:53:10;;;;;;;3.75;3.50;;;;;;;;;;4839427;29;20586;-72
2024/01/26 12:55:38;;;;;;;4.45;3.80;;;;;;;;;;4839060;29;20212;-69
2024/01/26 12:58:07;;;;;;;4.85;4.53;;;;;;;;;;4845020;29;20227;-71
2024/01/26 13:00:37;;;;;;;4.88;4.47;;;;;;;;;;4850379;29;20662;-72
2024/01/26 13:07:03;;;;;;;4.05;3.75;;;;;;;;;;4834129;29;20211;-70
2024/01/26 13:09:33;;;;;;;3.50;3.30;;;;;;;;;;4915265;23;20291;-83
2024/01/26 13:12:05;;;;;;;3.85;3.65;;;;;;;;;;4876064;29;20278;-85
2024/01/26 13:14:34;;;;;;;3.55;3.25;;;;;;;;;;4871987;29;20259;-82
2024/01/26 13:17:06;;;;;;;5.68;4.60;;;;;;;;;;4884062;29;20225;-85
2024/01/26 13:19:39;;;;;;;20.10;15.27;;;;;;;;;;4844289;29;20228;-84
2024/01/26 13:22:08;;;;;;;7.85;6.75;;;;;;;;;;4888755;29;20250;-82
2024/01/26 15:45:50;;;;;;;7.55;4.35;;;;;;;;;;5979844;23;20494;31
2024/01/26 16:41:07;;;;;;;7.82;6.60;;;;;;;;;;4881434;29;20210;-86
2024/01/26 16:46:32;;;;;;;6.28;4.72;;;;;;;;;;5202289;23;20218;-85
2024/01/26 16:49:03;;;;;;;7.97;6.18;;;;;;;;;;4922375;23;20271;-86
2024/01/26 16:51:31;;;;;;;8.10;6.03;;;;;;;;;;5113013;24;20245;-85
2024/01/26 16:54:02;;;;;;;4.90;4.50;;;;;;;;;;5083259;23;20241;-87
2024/01/26 16:56:39;;;;;;;5.05;4.65;;;;;;;;;;4936466;29;20205;-86
2024/01/26 16:59:07;;;;;;;7.57;6.40;;;;;;;;;;4919401;29;20274;-87
2024/01/26 17:01:35;;;;;;;7.57;4.63;;;;;;;;;;4911694;29;20226;-87
2024/01/26 17:04:06;;;;;;;9.20;4.95;;;;;;;;;;4914343;29;20244;-87
2024/01/26 17:06:34;;;;;;;5.45;4.95;;;;;;;;;;4900796;29;20246;-87
2024/01/26 17:09:07;;;;;;;5.95;5.40;;;;;;;;;;4917868;29;20205;-87
2024/01/26 17:11:40;;;;;;;5.57;5.07;;;;;;;;;;4935531;29;20317;-86
2024/01/26 17:14:09;;;;;;;5.43;4.95;;;;;;;;;;4902356;29;20209;-87
2024/01/26 17:16:38;;;;;;;5.63;4.97;;;;;;;;;;4899987;29;20288;-87
2024/01/26 17:19:12;;;;;;;4.53;4.15;;;;;;;;;;4901105;29;20272;-87
2024/01/26 17:21:47;;;;;;;6.55;4.93;;;;;;;;;;4909229;29;20212;-87
2024/01/26 17:24:16;;;;;;;5.40;4.00;;;;;;;;;;4918330;29;20203;-86
2024/01/26 17:26:45;;;;;;;3.90;3.47;;;;;;;;;;4887654;29;20213;-88
2024/01/26 17:29:15;;;;;;;3.88;3.10;;;;;;;;;;4897641;29;20723;-87
2024/01/26 17:31:43;;;;;;;4.88;4.00;;;;;;;;;;4907268;29;20225;-87
2024/01/26 17:34:13;;;;;;;4.40;4.00;;;;;;;;;;4919066;29;20273;-87
2024/01/26 17:36:41;;;;;;;4.30;4.03;;;;;;;;;;4918190;29;20217;-87
2024/01/26 17:39:10;;;;;;;4.78;4.38;;;;;;;;;;4910822;29;20203;-86
2024/01/26 17:41:39;;;;;;;4.28;3.80;;;;;;;;;;4895773;29;20690;-86
2024/01/26 17:44:11;;;;;;;5.20;4.15;;;;;;;;;;4913513;29;20269;-88
2024/01/26 17:46:39;;;;;;;4.35;3.95;;;;;;;;;;4896720;29;20381;-87
2024/01/26 17:49:07;;;;;;;4.80;4.28;;;;;;;;;;4883111;29;20226;-87
2024/01/26 17:51:36;;;;;;;9.27;8.57;;;;;;;;;;4894107;29;20571;-88
2024/01/26 17:54:04;;;;;;;7.60;4.25;;;;;;;;;;4893102;29;20253;-88
2024/01/26 17:56:33;;;;;;;4.45;4.05;;;;;;;;;;4892097;29;20193;-88
2024/01/26 17:59:02;;;;;;;4.57;4.10;;;;;;;;;;4890899;29;20210;-86
2024/01/26 18:01:31;;;;;;;5.20;4.70;;;;;;;;;;4900199;29;20209;-87
2024/01/26 18:03:59;;;;;;;8.63;5.93;;;;;;;;;;4919662;29;20697;-86